Time;durP1;ratioP1;P1;durP2;ratioP2;P2;SDS_P1;SDS_P2;PMS_P1;PMS_P2;Temp;Humidity;BMP_temperature;BMP_pressure;BME280_temperature;BME280_humidity;BME280_pressure;Samples;Min_cycle;Max_cycle;Signal;HPM_P1;HPM_P2
2023/09/11 00:01:54;;;;;;;13.70;11.23;;;17.60;99.90;;;;;;4949107;28;20197;-58
2023/09/11 00:04:21;;;;;;;13.43;10.97;;;17.60;99.90;;;;;;4949203;28;20194;-59
2023/09/11 00:06:47;;;;;;;18.70;12.10;;;17.50;99.90;;;;;;4955527;28;20773;-62
2023/09/11 00:09:13;;;;;;;23.63;12.07;;;17.50;99.90;;;;;;4957491;28;20453;-60
2023/09/11 00:11:39;;;;;;;16.20;12.07;;;17.50;99.90;;;;;;4950116;28;20448;-60
2023/09/11 00:14:04;;;;;;;18.83;11.87;;;17.50;99.90;;;;;;4956073;28;20205;-60
2023/09/11 00:16:30;;;;;;;13.73;11.37;;;17.40;99.90;;;;;;4962774;28;20544;-60
2023/09/11 00:18:56;;;;;;;19.93;11.27;;;17.40;99.90;;;;;;4954484;28;20276;-60
2023/09/11 00:21:23;;;;;;;17.57;11.90;;;17.40;99.90;;;;;;4948372;28;20252;-59
2023/09/11 00:23:49;;;;;;;17.13;12.30;;;17.40;99.90;;;;;;4951394;28;20193;-60
2023/09/11 00:26:15;;;;;;;13.40;10.80;;;17.30;99.90;;;;;;4948777;28;20461;-61
2023/09/11 00:28:40;;;;;;;19.87;11.60;;;17.30;99.90;;;;;;4961665;28;20433;-60
2023/09/11 00:31:06;;;;;;;14.33;11.07;;;17.30;99.90;;;;;;4946048;28;22172;-61
2023/09/11 00:33:31;;;;;;;15.37;11.03;;;17.20;99.90;;;;;;4946594;28;20194;-60
2023/09/11 00:35:57;;;;;;;15.40;11.20;;;17.20;99.90;;;;;;4951790;28;20217;-60
2023/09/11 00:38:22;;;;;;;13.67;11.33;;;17.20;99.90;;;;;;4952671;28;20773;-59
2023/09/11 00:40:48;;;;;;;19.20;11.80;;;17.10;99.90;;;;;;4950059;28;20213;-62
2023/09/11 00:43:14;;;;;;;15.00;12.10;;;17.10;99.90;;;;;;4950491;28;20185;-60
2023/09/11 00:45:39;;;;;;;16.50;12.73;;;17.10;99.90;;;;;;4960240;28;20306;-61
2023/09/11 00:48:05;;;;;;;20.47;12.33;;;17.10;99.90;;;;;;4958070;28;20671;-60
2023/09/11 00:50:31;;;;;;;18.13;11.67;;;17.10;99.90;;;;;;4955179;28;20260;-60
2023/09/11 00:52:57;;;;;;;11.73;10.50;;;17.10;99.90;;;;;;4951659;28;20804;-60
2023/09/11 00:55:23;;;;;;;16.47;10.53;;;17.00;99.90;;;;;;4948053;28;20213;-60
2023/09/11 00:57:50;;;;;;;15.90;11.23;;;17.00;99.90;;;;;;4952689;28;20441;-61
2023/09/11 01:00:16;;;;;;;18.97;11.23;;;16.90;99.90;;;;;;4950619;28;20212;-59
2023/09/11 01:02:41;;;;;;;13.80;11.17;;;16.90;99.90;;;;;;4945947;28;20429;-59
2023/09/11 01:05:08;;;;;;;14.50;11.40;;;16.90;99.90;;;;;;4956001;28;21932;-59
2023/09/11 01:07:35;;;;;;;14.50;11.00;;;16.80;99.90;;;;;;4952506;28;20546;-59
2023/09/11 01:10:05;;;;;;;19.90;11.27;;;16.80;99.90;;;;;;4952769;28;20937;-60
2023/09/11 01:12:35;;;;;;;16.53;11.27;;;16.80;99.90;;;;;;4952135;28;21222;-60
2023/09/11 01:15:04;;;;;;;14.67;12.03;;;16.70;99.90;;;;;;4951178;28;20930;-59
2023/09/11 01:17:43;;;;;;;16.83;12.20;;;16.70;99.90;;;;;;4964784;28;20447;-59
2023/09/11 01:20:42;;;;;;;16.47;11.47;;;16.70;99.90;;;;;;4951143;28;20509;-60
2023/09/11 01:23:13;;;;;;;18.00;12.73;;;16.70;99.90;;;;;;4945450;28;20441;-60
2023/09/11 01:26:06;;;;;;;14.03;11.40;;;16.60;99.90;;;;;;4948751;28;20560;-60
2023/09/11 01:28:53;;;;;;;18.80;11.63;;;16.60;99.90;;;;;;4957798;28;20448;-60
2023/09/11 01:31:19;;;;;;;15.73;11.10;;;16.60;99.90;;;;;;5106688;22;20517;-55
2023/09/11 01:33:44;;;;;;;14.93;11.53;;;16.60;99.90;;;;;;4986892;28;20419;-54
2023/09/11 01:36:10;;;;;;;17.70;11.87;;;16.60;99.90;;;;;;4984626;28;20282;-55
2023/09/11 01:38:36;;;;;;;16.43;11.50;;;16.50;99.90;;;;;;4992053;28;21063;-55
2023/09/11 01:41:04;;;;;;;14.10;10.70;;;16.50;99.90;;;;;;4982127;28;20884;-54
2023/09/11 01:43:32;;;;;;;14.07;11.70;;;16.50;99.90;;;;;;4981020;28;20207;-56
2023/09/11 01:46:00;;;;;;;13.43;10.93;;;16.40;99.90;;;;;;4981292;28;20440;-55
2023/09/11 01:48:29;;;;;;;13.70;10.90;;;16.40;99.90;;;;;;4989554;28;20428;-55
2023/09/11 01:50:55;;;;;;;17.57;11.53;;;16.40;99.90;;;;;;4982094;28;20633;-54
2023/09/11 01:53:21;;;;;;;14.07;10.80;;;16.30;99.90;;;;;;4979878;28;20506;-56
2023/09/11 01:55:47;;;;;;;20.13;11.30;;;16.30;99.90;;;;;;4981277;28;20279;-53
2023/09/11 01:58:12;;;;;;;21.03;11.93;;;16.30;99.90;;;;;;4987814;28;20191;-55
2023/09/11 02:00:38;;;;;;;16.27;10.77;;;16.20;99.90;;;;;;4987063;28;20227;-55
2023/09/11 02:03:03;;;;;;;13.73;11.20;;;16.20;99.90;;;;;;4980596;28;20181;-55
2023/09/11 02:05:29;;;;;;;15.80;11.43;;;16.20;99.90;;;;;;4981348;28;20789;-55
2023/09/11 02:07:55;;;;;;;14.63;11.43;;;16.20;99.90;;;;;;4987557;28;20620;-56
2023/09/11 02:10:20;;;;;;;13.90;10.90;;;16.20;99.90;;;;;;4978681;28;20209;-55
2023/09/11 02:12:46;;;;;;;14.87;11.23;;;16.20;99.90;;;;;;4978399;28;20192;-56
2023/09/11 02:15:12;;;;;;;21.93;10.53;;;16.10;99.90;;;;;;4984715;28;21334;-56
2023/09/11 02:17:37;;;;;;;14.40;11.90;;;16.20;99.90;;;;;;4987155;28;20216;-56
2023/09/11 02:20:04;;;;;;;15.20;11.60;;;16.10;99.90;;;;;;4992576;28;20204;-55
2023/09/11 02:22:29;;;;;;;17.63;11.50;;;16.10;99.90;;;;;;4976111;28;20238;-54
2023/09/11 02:24:55;;;;;;;14.10;10.73;;;16.00;99.90;;;;;;4982937;28;20423;-56
2023/09/11 02:27:21;;;;;;;13.77;11.30;;;16.00;99.90;;;;;;4998177;28;20268;-54
2023/09/11 02:29:46;;;;;;;15.47;11.30;;;16.00;99.90;;;;;;4980966;28;20288;-56
2023/09/11 02:32:12;;;;;;;17.07;11.40;;;16.00;99.90;;;;;;4983319;28;21256;-57
2023/09/11 02:34:37;;;;;;;18.23;12.07;;;15.90;99.90;;;;;;4984133;28;20180;-55
2023/09/11 02:37:03;;;;;;;15.30;10.73;;;15.90;99.90;;;;;;4986739;28;20692;-56
2023/09/11 02:39:29;;;;;;;17.53;11.20;;;15.90;99.90;;;;;;4989225;28;20177;-57
2023/09/11 02:41:54;;;;;;;12.20;10.90;;;15.90;99.90;;;;;;4998348;28;20445;-56
2023/09/11 02:44:20;;;;;;;14.23;11.30;;;15.80;99.90;;;;;;4987463;28;20176;-56
2023/09/11 02:46:45;;;;;;;18.77;12.60;;;15.80;99.90;;;;;;4986078;28;20648;-57
2023/09/11 02:49:11;;;;;;;15.50;11.40;;;15.80;99.90;;;;;;4992947;28;20263;-57
2023/09/11 02:51:37;;;;;;;13.43;10.90;;;15.80;99.90;;;;;;4988754;28;20216;-56
2023/09/11 02:54:02;;;;;;;12.80;10.67;;;15.80;99.90;;;;;;4987356;28;21216;-56
2023/09/11 02:56:28;;;;;;;16.50;10.67;;;15.80;99.90;;;;;;4985552;28;20173;-56
2023/09/11 02:58:53;;;;;;;12.20;10.20;;;15.70;99.90;;;;;;4985418;28;20187;-56
2023/09/11 03:01:19;;;;;;;19.67;10.33;;;15.70;99.90;;;;;;4985077;28;20212;-57
2023/09/11 03:03:46;;;;;;;14.67;10.47;;;15.70;99.90;;;;;;4987101;28;20188;-57
2023/09/11 03:06:11;;;;;;;14.87;11.13;;;15.60;99.90;;;;;;4982595;28;20275;-57
2023/09/11 03:08:37;;;;;;;17.23;10.50;;;15.60;99.90;;;;;;4989239;28;20506;-57
2023/09/11 03:11:08;;;;;;;16.00;10.87;;;15.60;99.90;;;;;;4990992;28;20642;-56
2023/09/11 03:13:33;;;;;;;13.40;10.27;;;15.60;99.90;;;;;;4985852;28;20185;-56
2023/09/11 03:16:12;;;;;;;14.33;10.67;;;15.60;99.90;;;;;;4983032;28;20466;-57
2023/09/11 03:18:38;;;;;;;13.37;10.97;;;15.50;99.90;;;;;;4989953;28;20215;-58
2023/09/11 03:21:04;;;;;;;14.50;10.97;;;15.50;99.90;;;;;;4994211;28;20839;-56
2023/09/11 03:23:30;;;;;;;13.57;11.50;;;15.50;99.90;;;;;;4985899;28;20447;-56
2023/09/11 03:25:56;;;;;;;16.73;11.73;;;15.40;99.90;;;;;;4985614;28;21309;-57
2023/09/11 03:28:25;;;;;;;17.20;11.10;;;15.40;99.90;;;;;;4990368;28;20177;-55
2023/09/11 03:30:51;;;;;;;13.07;10.43;;;15.40;99.90;;;;;;4983379;28;20366;-57
2023/09/11 03:33:17;;;;;;;12.03;10.30;;;15.40;99.90;;;;;;4986255;28;20443;-57
2023/09/11 03:35:44;;;;;;;14.77;11.13;;;15.40;99.90;;;;;;4985510;28;20181;-57
2023/09/11 03:38:10;;;;;;;16.23;10.97;;;15.40;99.90;;;;;;4991744;28;20262;-56
2023/09/11 03:40:35;;;;;;;14.20;11.37;;;15.40;99.90;;;;;;4982864;28;20972;-58
2023/09/11 03:43:01;;;;;;;14.97;11.43;;;15.40;99.90;;;;;;4987471;28;20258;-56
2023/09/11 03:45:27;;;;;;;16.93;11.57;;;15.40;99.90;;;;;;4981855;28;20270;-56
2023/09/11 03:47:53;;;;;;;16.57;11.63;;;15.30;99.90;;;;;;4989251;28;20271;-56
2023/09/11 03:50:18;;;;;;;14.23;10.60;;;15.30;99.90;;;;;;4983327;28;20965;-56
2023/09/11 03:52:44;;;;;;;11.97;10.53;;;15.40;99.90;;;;;;4990864;28;20208;-57
2023/09/11 03:55:09;;;;;;;14.63;11.30;;;15.30;99.90;;;;;;4984536;28;20184;-56
2023/09/11 03:57:35;;;;;;;16.70;11.10;;;15.30;99.90;;;;;;4990252;28;20196;-56
2023/09/11 04:00:01;;;;;;;12.60;10.43;;;15.30;99.90;;;;;;4983100;28;20742;-57
2023/09/11 04:02:26;;;;;;;17.40;9.70;;;15.30;99.90;;;;;;4996858;28;20280;-56
2023/09/11 04:04:52;;;;;;;19.80;11.20;;;15.30;99.90;;;;;;4995004;28;20599;-56
2023/09/11 04:07:18;;;;;;;12.93;10.40;;;15.30;99.90;;;;;;5003189;28;20264;-54
2023/09/11 04:09:43;;;;;;;12.17;10.20;;;15.30;99.90;;;;;;4997881;28;20673;-55
2023/09/11 04:12:14;;;;;;;13.57;10.10;;;15.20;99.90;;;;;;4991832;28;20744;-56
2023/09/11 04:14:39;;;;;;;15.47;10.60;;;15.20;99.90;;;;;;4998820;28;20184;-56
2023/09/11 04:17:05;;;;;;;11.83;9.97;;;15.20;99.90;;;;;;4986299;28;20435;-56
2023/09/11 04:19:30;;;;;;;14.33;10.53;;;15.10;99.90;;;;;;4991829;28;20279;-56
2023/09/11 04:21:56;;;;;;;25.60;9.83;;;15.10;99.90;;;;;;4994451;28;20271;-56
2023/09/11 04:24:22;;;;;;;12.43;10.13;;;15.10;99.90;;;;;;4993017;28;20184;-54
2023/09/11 04:26:47;;;;;;;12.70;10.43;;;15.00;99.90;;;;;;4989937;28;20235;-57
2023/09/11 04:29:13;;;;;;;14.50;10.80;;;14.90;99.90;;;;;;5000316;28;20208;-55
2023/09/11 04:31:39;;;;;;;14.67;11.00;;;14.90;99.90;;;;;;4998389;28;20243;-56
2023/09/11 04:34:04;;;;;;;14.00;10.77;;;14.90;99.90;;;;;;4992225;28;20181;-56
2023/09/11 04:36:30;;;;;;;13.93;10.97;;;14.80;99.90;;;;;;4999280;28;20180;-55
2023/09/11 04:38:56;;;;;;;11.57;10.33;;;14.90;99.90;;;;;;5000740;28;20287;-53
2023/09/11 04:41:21;;;;;;;11.90;9.90;;;14.90;99.90;;;;;;4998473;28;20223;-56
2023/09/11 04:43:47;;;;;;;12.03;9.80;;;14.80;99.90;;;;;;5000781;28;20196;-56
2023/09/11 04:46:13;;;;;;;17.03;11.60;;;14.70;99.90;;;;;;4989261;28;20191;-54
2023/09/11 04:48:38;;;;;;;11.03;9.73;;;14.70;99.90;;;;;;4992261;28;20588;-58
2023/09/11 04:51:04;;;;;;;12.50;10.83;;;14.70;99.90;;;;;;4997754;28;20292;-55
2023/09/11 04:53:30;;;;;;;13.67;11.00;;;14.70;99.90;;;;;;4994500;28;20580;-57
2023/09/11 04:55:56;;;;;;;22.90;11.60;;;14.70;99.90;;;;;;4986861;28;20489;-55
2023/09/11 04:58:22;;;;;;;14.83;11.10;;;14.60;99.90;;;;;;4996004;28;20271;-55
2023/09/11 05:00:47;;;;;;;14.40;10.60;;;14.60;99.90;;;;;;4992769;28;20476;-56
2023/09/11 05:03:13;;;;;;;18.70;11.73;;;14.60;99.90;;;;;;4995040;28;20200;-55
2023/09/11 05:05:40;;;;;;;29.63;13.00;;;14.60;99.90;;;;;;4996188;28;20211;-56
2023/09/11 05:08:07;;;;;;;14.93;12.00;;;14.60;99.90;;;;;;4994680;28;20180;-55
2023/09/11 05:10:32;;;;;;;37.60;13.77;;;14.60;99.90;;;;;;4996791;28;21113;-54
2023/09/11 05:12:58;;;;;;;23.03;11.43;;;14.60;99.90;;;;;;4998462;28;20474;-55
2023/09/11 05:15:23;;;;;;;32.77;14.53;;;14.50;99.90;;;;;;4996690;28;20191;-55
2023/09/11 05:17:49;;;;;;;19.43;13.50;;;14.50;99.90;;;;;;5000580;28;20203;-56
2023/09/11 05:20:15;;;;;;;38.07;12.57;;;14.50;99.90;;;;;;4994217;28;20251;-56
2023/09/11 05:22:41;;;;;;;37.57;11.33;;;14.50;99.90;;;;;;4998111;28;20184;-56
2023/09/11 05:25:07;;;;;;;15.53;11.73;;;14.50;99.90;;;;;;4994897;28;20282;-53
2023/09/11 05:27:33;;;;;;;41.17;13.90;;;14.50;99.90;;;;;;4991473;28;20185;-56
2023/09/11 05:29:59;;;;;;;54.40;14.27;;;14.40;99.90;;;;;;5003667;28;20459;-55
2023/09/11 05:32:25;;;;;;;16.27;11.50;;;14.40;99.90;;;;;;4989959;28;20188;-53
2023/09/11 05:34:52;;;;;;;18.00;12.40;;;14.40;99.90;;;;;;4996938;28;20531;-54
2023/09/11 05:37:17;;;;;;;30.93;13.70;;;14.40;99.90;;;;;;4991768;28;20181;-55
2023/09/11 05:39:43;;;;;;;20.20;12.83;;;14.40;99.90;;;;;;4991881;28;20490;-55
2023/09/11 05:42:10;;;;;;;18.10;13.50;;;14.40;99.90;;;;;;4998674;28;20183;-55
2023/09/11 05:44:36;;;;;;;24.10;12.80;;;14.50;99.90;;;;;;4996653;28;20961;-56
2023/09/11 05:47:02;;;;;;;18.80;12.63;;;14.50;99.90;;;;;;4997881;28;20539;-55
2023/09/11 05:49:28;;;;;;;17.23;11.30;;;14.50;99.90;;;;;;5004556;28;20271;-55
2023/09/11 05:51:55;;;;;;;13.37;10.10;;;14.50;99.90;;;;;;4998929;28;20519;-54
2023/09/11 05:54:20;;;;;;;14.93;11.17;;;14.50;99.90;;;;;;4998146;28;20311;-53
2023/09/11 05:56:46;;;;;;;15.97;11.10;;;14.50;99.90;;;;;;5000712;28;20591;-54
2023/09/11 05:59:12;;;;;;;11.57;10.23;;;14.60;99.90;;;;;;5005967;28;20180;-54
2023/09/11 06:01:38;;;;;;;15.13;10.20;;;14.60;99.90;;;;;;4999282;28;20721;-54
2023/09/11 06:04:04;;;;;;;12.13;10.30;;;14.70;99.90;;;;;;5000942;28;20439;-54
2023/09/11 06:06:30;;;;;;;14.20;10.80;;;14.90;99.90;;;;;;5001353;28;20177;-52
2023/09/11 06:08:57;;;;;;;15.90;11.80;;;15.00;99.90;;;;;;5001723;28;20211;-55
2023/09/11 06:11:23;;;;;;;14.77;10.87;;;15.00;99.90;;;;;;4997745;28;20478;-54
2023/09/11 06:13:49;;;;;;;15.10;11.53;;;15.10;99.90;;;;;;5002004;28;20478;-54
2023/09/11 06:16:14;;;;;;;13.60;10.13;;;15.20;99.90;;;;;;5005779;28;20184;-54
2023/09/11 06:18:40;;;;;;;16.80;11.60;;;15.20;99.90;;;;;;5006687;28;20176;-53
2023/09/11 06:21:06;;;;;;;16.70;12.17;;;15.30;99.90;;;;;;5001776;28;20217;-55
2023/09/11 06:23:31;;;;;;;16.93;11.63;;;15.40;99.90;;;;;;4997485;28;20658;-56
2023/09/11 06:25:57;;;;;;;17.00;11.43;;;15.40;99.90;;;;;;4998694;28;20185;-55
2023/09/11 06:28:23;;;;;;;14.20;11.63;;;15.50;99.90;;;;;;5001949;28;20185;-55
2023/09/11 06:30:49;;;;;;;15.07;11.57;;;15.60;99.90;;;;;;4997136;28;20303;-55
2023/09/11 06:33:14;;;;;;;15.63;9.80;;;15.60;99.90;;;;;;4999664;28;20235;-55
2023/09/11 06:35:40;;;;;;;13.20;10.87;;;15.70;99.90;;;;;;4999806;28;20176;-54
2023/09/11 06:38:05;;;;;;;15.27;11.40;;;15.80;99.90;;;;;;5006276;28;20211;-55
2023/09/11 06:40:31;;;;;;;14.53;11.17;;;15.80;99.90;;;;;;5009278;28;20224;-54
2023/09/11 06:42:57;;;;;;;17.10;11.80;;;15.90;99.90;;;;;;5004768;28;20260;-54
2023/09/11 06:45:22;;;;;;;14.57;11.53;;;16.00;99.90;;;;;;5008079;28;20187;-55
2023/09/11 06:47:48;;;;;;;16.93;11.30;;;16.10;99.90;;;;;;5007095;28;20187;-55
2023/09/11 06:50:14;;;;;;;16.70;11.73;;;16.10;99.90;;;;;;5004181;28;20789;-54
2023/09/11 06:52:40;;;;;;;19.23;12.60;;;16.20;99.90;;;;;;4993306;28;20173;-54
2023/09/11 06:55:07;;;;;;;18.07;13.17;;;16.30;99.90;;;;;;5000479;28;20436;-55
2023/09/11 06:57:33;;;;;;;18.50;12.37;;;16.40;99.90;;;;;;5000120;28;20490;-55
2023/09/11 06:59:59;;;;;;;18.43;12.60;;;16.50;99.90;;;;;;5000852;28;20990;-55
2023/09/11 07:02:25;;;;;;;21.73;12.60;;;16.50;99.90;;;;;;5003038;28;20432;-54
2023/09/11 07:04:51;;;;;;;17.80;11.00;;;16.60;99.90;;;;;;5008420;28;20427;-54
2023/09/11 07:07:16;;;;;;;15.53;11.13;;;16.60;99.90;;;;;;5009130;28;20644;-54
2023/09/11 07:09:42;;;;;;;15.13;11.80;;;16.70;99.90;;;;;;5005634;28;20196;-55
2023/09/11 07:12:07;;;;;;;17.57;12.70;;;16.80;99.90;;;;;;5004318;28;20191;-54
2023/09/11 07:14:33;;;;;;;17.83;12.33;;;16.90;99.90;;;;;;5001177;28;20208;-55
2023/09/11 07:17:04;;;;;;;16.40;12.00;;;16.90;99.90;;;;;;5000967;28;20184;-55
2023/09/11 07:19:30;;;;;;;14.77;11.20;;;17.00;99.90;;;;;;5003048;28;20208;-53
2023/09/11 07:21:55;;;;;;;16.27;11.90;;;17.10;99.90;;;;;;5009131;28;20424;-55
2023/09/11 07:24:21;;;;;;;13.40;11.53;;;17.20;99.90;;;;;;5005660;28;20204;-53
2023/09/11 07:26:47;;;;;;;15.10;11.27;;;17.30;99.90;;;;;;5002506;28;20177;-54
2023/09/11 07:29:12;;;;;;;17.93;12.03;;;17.40;99.90;;;;;;5002648;28;20211;-54
2023/09/11 07:31:38;;;;;;;14.23;10.80;;;17.50;99.90;;;;;;5006086;28;20729;-54
2023/09/11 07:34:03;;;;;;;13.63;11.33;;;17.60;99.90;;;;;;5007994;28;20550;-52
2023/09/11 07:36:29;;;;;;;14.73;11.30;;;17.60;99.90;;;;;;5008520;28;20180;-53
2023/09/11 07:38:55;;;;;;;24.33;11.23;;;17.80;99.90;;;;;;5005022;28;20177;-54
2023/09/11 07:41:22;;;;;;;22.20;12.03;;;17.80;99.90;;;;;;5021393;23;20235;-57
2023/09/11 07:43:50;;;;;;;17.90;11.73;;;17.90;99.90;;;;;;5019168;28;21081;-58
2023/09/11 07:46:19;;;;;;;20.20;11.03;;;18.00;99.90;;;;;;5023158;28;20437;-59
2023/09/11 07:48:45;;;;;;;16.77;12.03;;;18.10;99.90;;;;;;5027552;28;20429;-60
2023/09/11 07:51:10;;;;;;;16.23;11.57;;;18.20;99.90;;;;;;5021697;28;20422;-58
2023/09/11 07:53:36;;;;;;;17.67;12.20;;;18.30;99.90;;;;;;5034308;28;20206;-59
2023/09/11 07:56:10;;;;;;;19.80;11.67;;;18.40;99.90;;;;;;5038708;28;20180;-59
2023/09/11 07:58:36;;;;;;;16.27;12.17;;;18.60;99.90;;;;;;5046102;28;20644;-59
2023/09/11 08:01:02;;;;;;;21.73;11.30;;;18.70;99.90;;;;;;5043091;28;21078;-58
2023/09/11 08:03:29;;;;;;;16.27;11.00;;;18.80;99.90;;;;;;5045660;28;20965;-58
2023/09/11 08:05:54;;;;;;;14.40;10.97;;;18.90;99.90;;;;;;5037415;28;20822;-59
2023/09/11 08:08:20;;;;;;;14.93;11.10;;;19.00;99.90;;;;;;5041025;28;20468;-59
2023/09/11 08:10:46;;;;;;;17.70;12.27;;;19.10;99.90;;;;;;5036288;28;20180;-60
2023/09/11 08:13:11;;;;;;;18.40;11.10;;;19.20;99.90;;;;;;5041426;28;20196;-58
2023/09/11 08:15:37;;;;;;;19.50;11.33;;;19.30;99.90;;;;;;5043295;28;20176;-58
2023/09/11 08:18:03;;;;;;;18.40;11.13;;;19.50;99.90;;;;;;5038382;28;20581;-58
2023/09/11 08:20:28;;;;;;;13.77;11.70;;;19.60;99.90;;;;;;5046146;28;20190;-58
2023/09/11 08:22:54;;;;;;;15.53;11.57;;;19.70;99.90;;;;;;5040497;28;20858;-60
2023/09/11 08:25:20;;;;;;;22.07;12.30;;;19.80;99.90;;;;;;5040365;28;20182;-59
2023/09/11 08:27:46;;;;;;;23.73;13.60;;;19.90;99.90;;;;;;5033729;28;20176;-58
2023/09/11 08:30:11;;;;;;;16.23;12.93;;;20.00;99.90;;;;;;5048578;28;20241;-58
2023/09/11 08:32:37;;;;;;;17.93;12.47;;;20.10;99.90;;;;;;5042965;28;20453;-58
2023/09/11 08:35:03;;;;;;;19.10;13.37;;;20.30;99.90;;;;;;5038658;28;20183;-60
2023/09/11 08:37:30;;;;;;;20.33;14.13;;;20.40;99.90;;;;;;5043340;28;20179;-61
2023/09/11 08:39:56;;;;;;;17.77;13.57;;;20.60;99.90;;;;;;5041476;28;20294;-59
2023/09/11 08:42:23;;;;;;;27.20;15.87;;;20.70;99.90;;;;;;5044637;28;20539;-59
2023/09/11 08:44:51;;;;;;;36.17;16.77;;;20.90;99.90;;;;;;5043077;28;20217;-59
2023/09/11 08:47:20;;;;;;;31.27;16.60;;;21.00;99.90;;;;;;5041039;28;20962;-59
2023/09/11 08:49:57;;;;;;;24.13;16.00;;;21.20;99.90;;;;;;5035651;28;20415;-58
2023/09/11 08:52:23;;;;;;;28.93;17.00;;;21.30;99.90;;;;;;5040142;28;20455;-59
2023/09/11 08:54:53;;;;;;;24.50;15.60;;;21.50;99.90;;;;;;5046475;28;20480;-59
2023/09/11 08:57:21;;;;;;;31.37;17.50;;;21.70;99.90;;;;;;5043672;28;20418;-60
2023/09/11 08:59:52;;;;;;;26.10;17.90;;;21.80;99.90;;;;;;5035254;28;20938;-59
2023/09/11 09:02:20;;;;;;;29.30;17.40;;;22.00;99.90;;;;;;5046766;28;20683;-60
2023/09/11 09:04:47;;;;;;;26.60;17.43;;;22.20;99.90;;;;;;5036068;28;20456;-60
2023/09/11 09:07:15;;;;;;;25.03;16.40;;;22.30;99.90;;;;;;5043528;28;20993;-59
2023/09/11 09:09:42;;;;;;;27.87;18.50;;;22.50;99.90;;;;;;5041856;28;20461;-59
2023/09/11 09:12:08;;;;;;;27.50;14.70;;;22.60;99.90;;;;;;5038809;28;20799;-58
2023/09/11 09:14:38;;;;;;;23.23;14.10;;;22.80;99.90;;;;;;5040952;28;21007;-58
2023/09/11 09:17:04;;;;;;;25.37;13.53;;;22.90;99.20;;;;;;5045467;28;20436;-59
2023/09/11 09:19:29;;;;;;;19.40;13.43;;;23.10;93.40;;;;;;5041904;28;20961;-59
2023/09/11 09:22:06;;;;;;;24.23;14.97;;;23.40;93.50;;;;;;5038906;28;20670;-61
2023/09/11 09:24:33;;;;;;;24.10;12.30;;;23.60;92.30;;;;;;5043638;28;20179;-59
2023/09/11 09:27:00;;;;;;;22.43;14.77;;;23.80;91.30;;;;;;5041922;28;20442;-60
2023/09/11 09:29:32;;;;;;;23.07;14.03;;;24.00;87.10;;;;;;5042703;28;20438;-57
2023/09/11 09:32:00;;;;;;;17.40;11.20;;;24.10;83.40;;;;;;5043773;28;20452;-59
2023/09/11 09:34:26;;;;;;;13.30;11.10;;;24.40;77.00;;;;;;5038888;28;20464;-59
2023/09/11 09:36:53;;;;;;;18.73;10.80;;;24.50;75.40;;;;;;5039481;28;20426;-59
2023/09/11 09:39:19;;;;;;;18.40;11.27;;;24.70;74.70;;;;;;5046799;28;20175;-59
2023/09/11 09:41:55;;;;;;;13.90;10.40;;;24.80;73.80;;;;;;5044291;28;20516;-59
2023/09/11 09:44:42;;;;;;;18.03;9.73;;;24.90;70.80;;;;;;5040659;28;21007;-61
2023/09/11 09:47:10;;;;;;;11.77;9.90;;;25.00;70.60;;;;;;5040183;28;20461;-60
2023/09/11 09:49:51;;;;;;;14.37;10.00;;;25.20;69.20;;;;;;5039811;28;20433;-59
2023/09/11 09:52:18;;;;;;;11.60;10.27;;;25.30;66.60;;;;;;5043999;28;20496;-59
2023/09/11 09:54:47;;;;;;;12.57;9.50;;;25.40;65.70;;;;;;5039977;28;20414;-62
2023/09/11 09:57:15;;;;;;;12.80;10.37;;;25.60;67.20;;;;;;5039047;28;21238;-60
2023/09/11 09:59:42;;;;;;;11.30;10.10;;;25.70;65.40;;;;;;5039944;28;20478;-59
2023/09/11 10:02:11;;;;;;;11.37;8.90;;;25.90;63.80;;;;;;5037041;28;20546;-60
2023/09/11 10:04:38;;;;;;;14.03;9.30;;;25.90;59.80;;;;;;5042728;28;20436;-60
2023/09/11 10:07:04;;;;;;;13.13;9.30;;;25.90;60.20;;;;;;5042348;28;20458;-59
2023/09/11 10:09:29;;;;;;;11.17;9.73;;;26.00;61.10;;;;;;5043246;28;20460;-62
2023/09/11 10:12:00;;;;;;;13.20;10.40;;;26.10;60.00;;;;;;5042191;28;20207;-60
2023/09/11 10:14:25;;;;;;;13.20;9.93;;;26.10;59.90;;;;;;5030933;28;20171;-59
2023/09/11 10:16:51;;;;;;;10.80;9.70;;;26.20;60.30;;;;;;5039681;28;20434;-60
2023/09/11 10:19:17;;;;;;;10.83;9.37;;;26.30;61.30;;;;;;5037424;28;20647;-60
2023/09/11 10:21:42;;;;;;;10.47;9.37;;;26.50;62.20;;;;;;5044542;28;20217;-59
2023/09/11 10:24:10;;;;;;;12.60;9.27;;;26.60;61.10;;;;;;5039433;28;20175;-59
2023/09/11 10:26:41;;;;;;;11.13;9.07;;;26.70;59.40;;;;;;5038917;28;20179;-59
2023/09/11 10:29:11;;;;;;;13.83;8.57;;;26.80;59.20;;;;;;5035743;28;20747;-58
2023/09/11 10:31:45;;;;;;;12.10;9.10;;;26.80;56.20;;;;;;5034594;28;20655;-59
2023/09/11 10:34:11;;;;;;;16.63;8.40;;;26.90;56.70;;;;;;5042392;28;20596;-61
2023/09/11 10:36:40;;;;;;;10.27;9.20;;;27.00;57.70;;;;;;5041738;28;20179;-59
2023/09/11 10:39:09;;;;;;;9.20;7.40;;;27.10;58.30;;;;;;5035096;28;20178;-60
2023/09/11 10:41:36;;;;;;;12.10;8.40;;;27.20;56.20;;;;;;5041816;28;20265;-59
2023/09/11 10:44:02;;;;;;;11.07;7.63;;;27.30;55.10;;;;;;5036099;28;20180;-63
2023/09/11 10:46:36;;;;;;;15.23;7.70;;;27.40;54.50;;;;;;5047467;28;20258;-60
2023/09/11 10:49:17;;;;;;;6.83;6.17;;;27.50;53.30;;;;;;5045821;28;20179;-60
2023/09/11 10:51:45;;;;;;;11.63;7.10;;;27.50;50.70;;;;;;5047968;28;20205;-60
2023/09/11 10:54:14;;;;;;;6.90;6.23;;;27.50;48.30;;;;;;5043721;28;20647;-59
2023/09/11 10:56:40;;;;;;;7.70;6.50;;;27.40;47.60;;;;;;5041850;28;20186;-60
2023/09/11 10:59:05;;;;;;;10.30;6.90;;;27.40;49.20;;;;;;5047811;28;20234;-59
2023/09/11 11:01:35;;;;;;;7.10;6.10;;;27.20;49.50;;;;;;5041841;28;20195;-58
2023/09/11 11:04:03;;;;;;;8.97;7.10;;;27.00;49.90;;;;;;5039689;28;20207;-59
2023/09/11 11:06:30;;;;;;;8.57;6.20;;;27.00;50.10;;;;;;5037714;28;20183;-60
2023/09/11 11:08:56;;;;;;;8.17;6.40;;;27.20;49.00;;;;;;5038856;28;20686;-60
2023/09/11 11:11:30;;;;;;;8.23;5.73;;;27.40;48.80;;;;;;5040377;28;20186;-58
2023/09/11 11:14:18;;;;;;;6.40;5.80;;;27.60;46.90;;;;;;5039929;28;20186;-58
2023/09/11 11:17:16;;;;;;;12.73;6.67;;;27.70;46.20;;;;;;5044739;28;20194;-58
2023/09/11 11:19:51;;;;;;;9.77;5.87;;;27.90;45.50;;;;;;5032184;28;20216;-60
2023/09/11 11:22:34;;;;;;;8.40;5.80;;;28.10;45.20;;;;;;5045331;28;20190;-58
2023/09/11 11:25:03;;;;;;;6.80;5.67;;;28.20;42.60;;;;;;5046097;28;20257;-59
2023/09/11 11:27:29;;;;;;;7.73;5.77;;;28.30;43.00;;;;;;5045589;28;20175;-59
2023/09/11 11:29:56;;;;;;;6.90;5.35;;;28.40;42.90;;;;;;5049194;28;20545;-59
2023/09/11 11:32:22;;;;;;;6.15;5.55;;;28.50;42.00;;;;;;5048313;28;20195;-61
2023/09/11 11:34:51;;;;;;;8.77;5.95;;;28.60;42.40;;;;;;5045055;28;20182;-60
2023/09/11 11:37:21;;;;;;;10.43;6.30;;;28.80;43.60;;;;;;5044910;28;20608;-59
2023/09/11 11:39:47;;;;;;;11.27;6.15;;;29.00;44.20;;;;;;5044494;28;20735;-60
2023/09/11 11:42:14;;;;;;;7.25;6.32;;;29.20;44.00;;;;;;5044874;28;20210;-59
2023/09/11 11:44:40;;;;;;;6.50;5.78;;;29.20;42.60;;;;;;5048848;28;20866;-59
2023/09/11 11:47:07;;;;;;;6.72;5.88;;;29.40;44.30;;;;;;5045695;28;20646;-60
2023/09/11 11:49:35;;;;;;;9.38;5.35;;;29.50;44.20;;;;;;5040826;28;20166;-60
2023/09/11 11:52:03;;;;;;;8.40;5.45;;;29.70;42.30;;;;;;5044199;28;20207;-60
2023/09/11 11:54:29;;;;;;;7.80;5.85;;;29.80;41.30;;;;;;5043596;28;20626;-59
2023/09/11 11:57:03;;;;;;;11.52;6.70;;;29.90;40.80;;;;;;5045778;28;20263;-59
2023/09/11 11:59:35;;;;;;;7.43;6.00;;;29.90;39.60;;;;;;5038198;28;20183;-59
2023/09/11 12:02:01;;;;;;;8.48;6.13;;;29.90;40.10;;;;;;5041305;28;20221;-59
2023/09/11 12:04:27;;;;;;;7.80;6.03;;;29.90;40.20;;;;;;5044031;28;20610;-61
2023/09/11 12:06:54;;;;;;;8.38;6.57;;;30.10;42.00;;;;;;5031715;28;20176;-59
2023/09/11 12:09:21;;;;;;;6.75;5.85;;;30.20;42.20;;;;;;5042558;28;20258;-61
2023/09/11 12:11:49;;;;;;;8.38;6.25;;;30.40;43.10;;;;;;5045893;28;20250;-59
2023/09/11 12:14:17;;;;;;;7.25;5.78;;;30.50;42.50;;;;;;5042990;28;20201;-61
2023/09/11 12:16:43;;;;;;;7.57;5.88;;;30.50;41.20;;;;;;5044145;28;20234;-59
2023/09/11 12:19:09;;;;;;;7.50;6.60;;;30.50;41.10;;;;;;5045983;28;20195;-58
2023/09/11 12:21:35;;;;;;;7.88;5.72;;;30.60;41.30;;;;;;5042257;28;20193;-59
2023/09/11 12:24:00;;;;;;;6.35;5.63;;;30.70;41.50;;;;;;5043200;28;20178;-59
2023/09/11 12:26:30;;;;;;;6.90;4.85;;;30.80;40.20;;;;;;5043474;28;20179;-60
2023/09/11 12:28:57;;;;;;;8.18;5.75;;;31.00;39.50;;;;;;5044452;28;20196;-59
2023/09/11 12:31:23;;;;;;;8.88;6.20;;;31.20;39.80;;;;;;5044582;28;20249;-59